FCM weather

Flying Cloud Airport
Minneapolis, Minnesota, United States

Public forecast

Using degrees Fahrenheit for public forecast. Weather courtesy of forecast.io.

Current aviation weather report (METAR) for Flying Cloud Airport

Retrieved 2019/10/20 21:53 UTC (41 minutes ago):

KFCM 202153Z 11007KT 10SM FEW110 18/03 A2979 RMK AO2 SLP089 T01780028

Aviation forecast (TAF) for Flying Cloud Airport

Forecast is more than 12 hours old.

Retrieved 2018/02/05 00:21 UTC (2 years ago):

TAF KFCM 052320Z 0600/0624 30007KT P6SM FEW200 FM061000 VRB03KT P6SM FEW250 FM061800 22006KT P6SM SCT100 BKN250 AMD NOT SKED